sensor_id;sensor_type;location;lat;lon;timestamp;P1;durP1;ratioP1;P2;durP2;ratioP2
20729;SDS011;10526;50.850;12.928;2023-06-22T00:03:09;23.88;;;11.60;;
20729;SDS011;10526;50.850;12.928;2023-06-22T00:07:32;18.48;;;12.02;;
20729;SDS011;10526;50.850;12.928;2023-06-22T00:11:54;19.88;;;12.95;;
20729;SDS011;10526;50.850;12.928;2023-06-22T00:16:16;22.75;;;12.73;;
20729;SDS011;10526;50.850;12.928;2023-06-22T00:20:38;18.55;;;12.43;;
20729;SDS011;10526;50.850;12.928;2023-06-22T00:25:00;19.63;;;12.38;;
20729;SDS011;10526;50.850;12.928;2023-06-22T00:29:22;18.90;;;12.82;;
20729;SDS011;10526;50.850;12.928;2023-06-22T00:33:45;19.77;;;12.77;;
20729;SDS011;10526;50.850;12.928;2023-06-22T00:38:08;20.60;;;11.98;;
20729;SDS011;10526;50.850;12.928;2023-06-22T00:42:30;18.55;;;11.82;;
20729;SDS011;10526;50.850;12.928;2023-06-22T00:46:54;17.50;;;12.30;;
20729;SDS011;10526;50.850;12.928;2023-06-22T00:51:16;20.70;;;13.23;;
20729;SDS011;10526;50.850;12.928;2023-06-22T00:55:41;19.88;;;12.95;;
20729;SDS011;10526;50.850;12.928;2023-06-22T01:00:05;24.55;;;14.98;;
20729;SDS011;10526;50.850;12.928;2023-06-22T01:04:37;22.35;;;15.45;;
20729;SDS011;10526;50.850;12.928;2023-06-22T01:09:02;23.95;;;16.67;;
20729;SDS011;10526;50.850;12.928;2023-06-22T01:13:43;22.52;;;16.00;;
20729;SDS011;10526;50.850;12.928;2023-06-22T01:18:06;23.00;;;16.10;;
20729;SDS011;10526;50.850;12.928;2023-06-22T01:22:31;23.33;;;16.30;;
20729;SDS011;10526;50.850;12.928;2023-06-22T01:27:17;22.88;;;15.95;;
20729;SDS011;10526;50.850;12.928;2023-06-22T01:32:02;23.30;;;15.63;;
20729;SDS011;10526;50.850;12.928;2023-06-22T01:36:30;26.95;;;17.75;;
20729;SDS011;10526;50.850;12.928;2023-06-22T01:40:54;27.50;;;17.80;;
20729;SDS011;10526;50.850;12.928;2023-06-22T01:45:18;21.52;;;16.27;;
20729;SDS011;10526;50.850;12.928;2023-06-22T01:49:40;20.33;;;14.82;;
20729;SDS011;10526;50.850;12.928;2023-06-22T01:54:02;22.65;;;16.02;;
20729;SDS011;10526;50.850;12.928;2023-06-22T01:58:28;22.95;;;15.60;;
20729;SDS011;10526;50.850;12.928;2023-06-22T02:02:57;24.25;;;15.20;;
20729;SDS011;10526;50.850;12.928;2023-06-22T02:07:34;22.75;;;16.27;;
20729;SDS011;10526;50.850;12.928;2023-06-22T02:12:31;21.75;;;16.02;;
20729;SDS011;10526;50.850;12.928;2023-06-22T02:16:56;23.95;;;17.25;;
20729;SDS011;10526;50.850;12.928;2023-06-22T02:21:20;24.83;;;17.67;;
20729;SDS011;10526;50.850;12.928;2023-06-22T02:25:43;22.98;;;16.88;;
20729;SDS011;10526;50.850;12.928;2023-06-22T02:30:07;23.10;;;15.75;;
20729;SDS011;10526;50.850;12.928;2023-06-22T02:34:33;27.55;;;18.33;;
20729;SDS011;10526;50.850;12.928;2023-06-22T02:38:55;44.35;;;31.55;;
20729;SDS011;10526;50.850;12.928;2023-06-22T02:43:22;26.65;;;19.27;;
20729;SDS011;10526;50.850;12.928;2023-06-22T02:47:44;25.30;;;18.77;;
20729;SDS011;10526;50.850;12.928;2023-06-22T02:52:06;27.75;;;19.10;;
20729;SDS011;10526;50.850;12.928;2023-06-22T02:56:28;27.55;;;19.52;;
20729;SDS011;10526;50.850;12.928;2023-06-22T03:00:54;27.90;;;20.40;;
20729;SDS011;10526;50.850;12.928;2023-06-22T03:05:17;30.10;;;21.50;;
20729;SDS011;10526;50.850;12.928;2023-06-22T03:09:41;29.25;;;19.55;;
20729;SDS011;10526;50.850;12.928;2023-06-22T03:14:04;29.08;;;19.63;;
20729;SDS011;10526;50.850;12.928;2023-06-22T03:18:26;30.15;;;22.95;;
20729;SDS011;10526;50.850;12.928;2023-06-22T03:22:48;34.72;;;26.40;;
20729;SDS011;10526;50.850;12.928;2023-06-22T03:27:11;23.30;;;16.90;;
20729;SDS011;10526;50.850;12.928;2023-06-22T03:31:34;24.52;;;15.35;;
20729;SDS011;10526;50.850;12.928;2023-06-22T03:35:56;23.52;;;14.30;;
20729;SDS011;10526;50.850;12.928;2023-06-22T03:40:18;21.80;;;12.90;;
20729;SDS011;10526;50.850;12.928;2023-06-22T03:44:40;21.40;;;12.35;;
20729;SDS011;10526;50.850;12.928;2023-06-22T03:49:02;20.63;;;11.95;;
20729;SDS011;10526;50.850;12.928;2023-06-22T03:53:25;21.58;;;11.73;;
20729;SDS011;10526;50.850;12.928;2023-06-22T03:57:47;25.10;;;12.02;;
20729;SDS011;10526;50.850;12.928;2023-06-22T04:02:09;22.63;;;10.70;;
20729;SDS011;10526;50.850;12.928;2023-06-22T04:06:31;20.77;;;10.48;;
20729;SDS011;10526;50.850;12.928;2023-06-22T04:10:55;19.50;;;10.15;;
20729;SDS011;10526;50.850;12.928;2023-06-22T04:15:17;19.13;;;8.30;;
20729;SDS011;10526;50.850;12.928;2023-06-22T04:19:40;15.52;;;8.60;;
20729;SDS011;10526;50.850;12.928;2023-06-22T04:24:02;21.45;;;8.55;;
20729;SDS011;10526;50.850;12.928;2023-06-22T04:28:24;20.10;;;8.52;;
20729;SDS011;10526;50.850;12.928;2023-06-22T04:32:48;18.70;;;9.30;;
20729;SDS011;10526;50.850;12.928;2023-06-22T04:37:17;23.85;;;10.15;;
20729;SDS011;10526;50.850;12.928;2023-06-22T04:41:39;22.85;;;9.88;;
20729;SDS011;10526;50.850;12.928;2023-06-22T04:46:05;16.23;;;9.30;;
20729;SDS011;10526;50.850;12.928;2023-06-22T04:50:28;24.48;;;10.45;;
20729;SDS011;10526;50.850;12.928;2023-06-22T04:54:50;19.00;;;9.57;;
20729;SDS011;10526;50.850;12.928;2023-06-22T04:59:18;26.02;;;9.18;;
20729;SDS011;10526;50.850;12.928;2023-06-22T05:03:40;17.65;;;8.63;;
20729;SDS011;10526;50.850;12.928;2023-06-22T05:08:03;26.63;;;9.02;;
20729;SDS011;10526;50.850;12.928;2023-06-22T05:12:28;14.70;;;8.55;;
20729;SDS011;10526;50.850;12.928;2023-06-22T05:16:51;12.68;;;7.10;;
20729;SDS011;10526;50.850;12.928;2023-06-22T05:21:14;13.90;;;6.80;;
20729;SDS011;10526;50.850;12.928;2023-06-22T05:25:36;15.18;;;7.47;;
20729;SDS011;10526;50.850;12.928;2023-06-22T05:29:58;16.63;;;7.78;;
20729;SDS011;10526;50.850;12.928;2023-06-22T05:34:20;16.83;;;7.82;;
20729;SDS011;10526;50.850;12.928;2023-06-22T05:38:42;17.23;;;8.30;;
20729;SDS011;10526;50.850;12.928;2023-06-22T05:43:04;15.73;;;7.30;;
20729;SDS011;10526;50.850;12.928;2023-06-22T05:47:26;14.02;;;7.05;;
20729;SDS011;10526;50.850;12.928;2023-06-22T05:51:49;13.18;;;6.85;;
20729;SDS011;10526;50.850;12.928;2023-06-22T05:56:11;13.02;;;6.82;;
20729;SDS011;10526;50.850;12.928;2023-06-22T06:00:34;13.60;;;6.50;;
20729;SDS011;10526;50.850;12.928;2023-06-22T06:04:57;11.27;;;6.03;;
20729;SDS011;10526;50.850;12.928;2023-06-22T06:09:19;13.70;;;7.00;;
20729;SDS011;10526;50.850;12.928;2023-06-22T06:13:41;13.93;;;6.82;;
20729;SDS011;10526;50.850;12.928;2023-06-22T06:18:03;18.17;;;7.25;;
20729;SDS011;10526;50.850;12.928;2023-06-22T06:22:29;12.98;;;5.68;;
20729;SDS011;10526;50.850;12.928;2023-06-22T06:26:51;15.65;;;5.65;;
20729;SDS011;10526;50.850;12.928;2023-06-22T06:31:13;11.48;;;5.50;;
20729;SDS011;10526;50.850;12.928;2023-06-22T06:35:38;10.50;;;5.10;;
20729;SDS011;10526;50.850;12.928;2023-06-22T06:40:00;10.07;;;5.13;;
20729;SDS011;10526;50.850;12.928;2023-06-22T06:44:22;12.35;;;6.22;;
20729;SDS011;10526;50.850;12.928;2023-06-22T06:48:44;14.88;;;5.85;;
20729;SDS011;10526;50.850;12.928;2023-06-22T06:53:06;11.80;;;5.75;;
20729;SDS011;10526;50.850;12.928;2023-06-22T06:57:28;10.95;;;5.50;;
20729;SDS011;10526;50.850;12.928;2023-06-22T07:01:51;11.27;;;5.20;;
20729;SDS011;10526;50.850;12.928;2023-06-22T07:06:14;10.50;;;5.03;;
20729;SDS011;10526;50.850;12.928;2023-06-22T07:10:40;9.73;;;5.40;;
20729;SDS011;10526;50.850;12.928;2023-06-22T07:15:03;8.07;;;5.07;;
20729;SDS011;10526;50.850;12.928;2023-06-22T07:19:29;8.38;;;4.60;;
20729;SDS011;10526;50.850;12.928;2023-06-22T07:23:52;8.32;;;4.70;;
20729;SDS011;10526;50.850;12.928;2023-06-22T07:28:15;8.80;;;4.90;;
20729;SDS011;10526;50.850;12.928;2023-06-22T07:32:37;9.98;;;4.93;;
20729;SDS011;10526;50.850;12.928;2023-06-22T07:37:00;11.55;;;4.88;;
20729;SDS011;10526;50.850;12.928;2023-06-22T07:41:22;11.10;;;5.13;;
20729;SDS011;10526;50.850;12.928;2023-06-22T07:45:48;11.82;;;4.63;;
20729;SDS011;10526;50.850;12.928;2023-06-22T07:50:14;8.50;;;4.53;;
20729;SDS011;10526;50.850;12.928;2023-06-22T07:54:36;8.60;;;4.82;;
20729;SDS011;10526;50.850;12.928;2023-06-22T07:58:59;8.05;;;4.50;;
20729;SDS011;10526;50.850;12.928;2023-06-22T08:03:25;9.93;;;5.15;;
20729;SDS011;10526;50.850;12.928;2023-06-22T08:07:47;8.27;;;4.55;;
20729;SDS011;10526;50.850;12.928;2023-06-22T08:12:09;8.55;;;4.60;;
20729;SDS011;10526;50.850;12.928;2023-06-22T08:16:32;6.88;;;4.38;;
20729;SDS011;10526;50.850;12.928;2023-06-22T08:20:54;8.80;;;4.45;;
20729;SDS011;10526;50.850;12.928;2023-06-22T08:25:16;9.68;;;4.60;;
20729;SDS011;10526;50.850;12.928;2023-06-22T08:29:39;7.18;;;4.20;;
20729;SDS011;10526;50.850;12.928;2023-06-22T08:34:03;11.10;;;5.03;;
20729;SDS011;10526;50.850;12.928;2023-06-22T08:38:25;7.38;;;4.20;;
20729;SDS011;10526;50.850;12.928;2023-06-22T08:42:50;8.50;;;4.53;;
20729;SDS011;10526;50.850;12.928;2023-06-22T08:47:13;7.28;;;4.40;;
20729;SDS011;10526;50.850;12.928;2023-06-22T08:51:35;10.68;;;4.90;;
20729;SDS011;10526;50.850;12.928;2023-06-22T08:55:59;9.30;;;5.05;;
20729;SDS011;10526;50.850;12.928;2023-06-22T09:00:24;9.25;;;5.00;;
20729;SDS011;10526;50.850;12.928;2023-06-22T09:04:46;8.77;;;4.18;;
20729;SDS011;10526;50.850;12.928;2023-06-22T09:09:09;11.18;;;4.78;;
20729;SDS011;10526;50.850;12.928;2023-06-22T09:13:32;7.90;;;4.63;;
20729;SDS011;10526;50.850;12.928;2023-06-22T09:17:54;10.57;;;5.20;;
20729;SDS011;10526;50.850;12.928;2023-06-22T09:22:18;7.00;;;4.30;;
20729;SDS011;10526;50.850;12.928;2023-06-22T09:26:40;9.18;;;4.97;;
20729;SDS011;10526;50.850;12.928;2023-06-22T09:31:02;9.98;;;4.65;;
20729;SDS011;10526;50.850;12.928;2023-06-22T09:35:25;8.88;;;4.70;;
20729;SDS011;10526;50.850;12.928;2023-06-22T09:39:47;8.45;;;4.75;;
20729;SDS011;10526;50.850;12.928;2023-06-22T09:44:09;8.98;;;4.80;;
20729;SDS011;10526;50.850;12.928;2023-06-22T09:48:31;9.27;;;4.47;;
20729;SDS011;10526;50.850;12.928;2023-06-22T09:52:54;9.32;;;4.90;;
20729;SDS011;10526;50.850;12.928;2023-06-22T09:57:16;10.68;;;5.45;;
20729;SDS011;10526;50.850;12.928;2023-06-22T10:01:39;11.25;;;5.50;;
20729;SDS011;10526;50.850;12.928;2023-06-22T10:06:01;11.95;;;5.65;;
20729;SDS011;10526;50.850;12.928;2023-06-22T10:10:24;12.43;;;5.07;;
20729;SDS011;10526;50.850;12.928;2023-06-22T10:14:46;10.95;;;5.20;;
20729;SDS011;10526;50.850;12.928;2023-06-22T10:19:09;10.85;;;4.82;;
20729;SDS011;10526;50.850;12.928;2023-06-22T10:23:31;10.70;;;5.60;;
20729;SDS011;10526;50.850;12.928;2023-06-22T10:27:53;9.75;;;5.45;;
20729;SDS011;10526;50.850;12.928;2023-06-22T10:32:15;8.40;;;5.18;;
20729;SDS011;10526;50.850;12.928;2023-06-22T10:36:38;9.32;;;5.20;;
20729;SDS011;10526;50.850;12.928;2023-06-22T10:41:00;10.95;;;5.50;;
20729;SDS011;10526;50.850;12.928;2023-06-22T10:45:22;11.80;;;5.90;;
20729;SDS011;10526;50.850;12.928;2023-06-22T10:49:45;10.70;;;5.22;;
20729;SDS011;10526;50.850;12.928;2023-06-22T10:54:07;9.73;;;5.20;;
20729;SDS011;10526;50.850;12.928;2023-06-22T10:58:29;9.30;;;5.45;;
20729;SDS011;10526;50.850;12.928;2023-06-22T11:02:52;12.10;;;5.85;;
20729;SDS011;10526;50.850;12.928;2023-06-22T11:07:15;10.60;;;6.00;;
20729;SDS011;10526;50.850;12.928;2023-06-22T11:11:37;12.02;;;6.30;;
20729;SDS011;10526;50.850;12.928;2023-06-22T11:15:59;12.80;;;6.22;;
20729;SDS011;10526;50.850;12.928;2023-06-22T11:20:21;11.68;;;6.25;;
20729;SDS011;10526;50.850;12.928;2023-06-22T11:24:43;12.77;;;6.50;;
20729;SDS011;10526;50.850;12.928;2023-06-22T11:29:05;13.80;;;7.15;;
20729;SDS011;10526;50.850;12.928;2023-06-22T11:33:34;12.05;;;6.72;;
20729;SDS011;10526;50.850;12.928;2023-06-22T11:37:56;13.35;;;6.80;;
20729;SDS011;10526;50.850;12.928;2023-06-22T11:42:19;13.25;;;6.93;;
20729;SDS011;10526;50.850;12.928;2023-06-22T11:46:41;14.23;;;6.93;;
20729;SDS011;10526;50.850;12.928;2023-06-22T11:51:04;14.07;;;6.43;;
20729;SDS011;10526;50.850;12.928;2023-06-22T11:55:28;12.82;;;5.72;;
20729;SDS011;10526;50.850;12.928;2023-06-22T11:59:51;12.50;;;5.60;;
20729;SDS011;10526;50.850;12.928;2023-06-22T12:04:14;10.70;;;5.97;;
20729;SDS011;10526;50.850;12.928;2023-06-22T12:08:36;12.93;;;6.47;;
20729;SDS011;10526;50.850;12.928;2023-06-22T12:12:59;10.88;;;5.88;;
20729;SDS011;10526;50.850;12.928;2023-06-22T12:17:21;13.10;;;6.50;;
20729;SDS011;10526;50.850;12.928;2023-06-22T12:21:43;13.40;;;6.65;;
20729;SDS011;10526;50.850;12.928;2023-06-22T12:26:07;14.80;;;6.35;;
20729;SDS011;10526;50.850;12.928;2023-06-22T12:30:29;14.00;;;6.30;;
20729;SDS011;10526;50.850;12.928;2023-06-22T12:34:52;11.98;;;6.25;;
20729;SDS011;10526;50.850;12.928;2023-06-22T12:39:15;12.68;;;6.40;;
20729;SDS011;10526;50.850;12.928;2023-06-22T12:43:37;14.57;;;6.35;;
20729;SDS011;10526;50.850;12.928;2023-06-22T12:47:59;13.45;;;5.97;;
20729;SDS011;10526;50.850;12.928;2023-06-22T12:52:21;13.23;;;7.25;;
20729;SDS011;10526;50.850;12.928;2023-06-22T12:56:43;12.02;;;6.28;;
20729;SDS011;10526;50.850;12.928;2023-06-22T13:01:06;14.00;;;6.60;;
20729;SDS011;10526;50.850;12.928;2023-06-22T13:05:28;12.43;;;6.22;;
20729;SDS011;10526;50.850;12.928;2023-06-22T13:09:50;14.77;;;6.35;;
20729;SDS011;10526;50.850;12.928;2023-06-22T13:14:13;13.38;;;6.80;;
20729;SDS011;10526;50.850;12.928;2023-06-22T13:18:37;12.02;;;7.10;;
20729;SDS011;10526;50.850;12.928;2023-06-22T13:22:59;17.98;;;6.25;;
20729;SDS011;10526;50.850;12.928;2023-06-22T13:27:21;12.80;;;7.10;;
20729;SDS011;10526;50.850;12.928;2023-06-22T13:31:44;12.32;;;6.47;;
20729;SDS011;10526;50.850;12.928;2023-06-22T13:36:07;13.60;;;6.68;;
20729;SDS011;10526;50.850;12.928;2023-06-22T13:40:29;14.63;;;7.20;;
20729;SDS011;10526;50.850;12.928;2023-06-22T13:44:51;13.00;;;6.60;;
20729;SDS011;10526;50.850;12.928;2023-06-22T13:49:13;13.35;;;6.82;;
20729;SDS011;10526;50.850;12.928;2023-06-22T13:53:36;15.90;;;6.90;;
20729;SDS011;10526;50.850;12.928;2023-06-22T13:57:58;15.95;;;7.60;;
20729;SDS011;10526;50.850;12.928;2023-06-22T14:02:20;14.07;;;7.20;;
20729;SDS011;10526;50.850;12.928;2023-06-22T14:06:43;12.27;;;6.30;;
20729;SDS011;10526;50.850;12.928;2023-06-22T14:11:05;16.17;;;6.85;;
20729;SDS011;10526;50.850;12.928;2023-06-22T14:15:27;14.13;;;6.70;;
20729;SDS011;10526;50.850;12.928;2023-06-22T14:19:49;12.27;;;6.55;;
20729;SDS011;10526;50.850;12.928;2023-06-22T14:24:13;15.85;;;6.93;;
20729;SDS011;10526;50.850;12.928;2023-06-22T14:28:35;14.88;;;6.80;;
20729;SDS011;10526;50.850;12.928;2023-06-22T14:32:57;15.10;;;6.88;;
20729;SDS011;10526;50.850;12.928;2023-06-22T14:37:20;14.13;;;7.03;;
20729;SDS011;10526;50.850;12.928;2023-06-22T14:41:42;13.50;;;6.50;;
20729;SDS011;10526;50.850;12.928;2023-06-22T14:46:04;18.48;;;6.63;;
20729;SDS011;10526;50.850;12.928;2023-06-22T14:50:26;13.55;;;7.15;;
20729;SDS011;10526;50.850;12.928;2023-06-22T14:54:49;12.27;;;6.05;;
20729;SDS011;10526;50.850;12.928;2023-06-22T14:59:13;15.50;;;6.55;;
20729;SDS011;10526;50.850;12.928;2023-06-22T15:03:35;14.55;;;7.35;;
20729;SDS011;10526;50.850;12.928;2023-06-22T15:07:57;13.38;;;6.93;;
20729;SDS011;10526;50.850;12.928;2023-06-22T15:12:19;15.88;;;6.68;;
20729;SDS011;10526;50.850;12.928;2023-06-22T15:16:42;16.80;;;7.43;;
20729;SDS011;10526;50.850;12.928;2023-06-22T15:21:04;14.73;;;7.32;;
20729;SDS011;10526;50.850;12.928;2023-06-22T15:25:26;14.45;;;7.47;;
20729;SDS011;10526;50.850;12.928;2023-06-22T15:29:49;14.40;;;6.18;;
20729;SDS011;10526;50.850;12.928;2023-06-22T15:34:12;12.98;;;6.55;;
20729;SDS011;10526;50.850;12.928;2023-06-22T15:38:35;14.95;;;7.20;;
20729;SDS011;10526;50.850;12.928;2023-06-22T15:42:57;12.40;;;6.68;;
20729;SDS011;10526;50.850;12.928;2023-06-22T15:47:19;16.05;;;6.43;;
20729;SDS011;10526;50.850;12.928;2023-06-22T15:51:43;17.13;;;7.72;;
20729;SDS011;10526;50.850;12.928;2023-06-22T15:56:06;13.95;;;6.95;;
20729;SDS011;10526;50.850;12.928;2023-06-22T16:00:31;13.88;;;6.82;;
20729;SDS011;10526;50.850;12.928;2023-06-22T16:04:54;13.73;;;6.10;;
20729;SDS011;10526;50.850;12.928;2023-06-22T16:09:17;13.52;;;6.45;;
20729;SDS011;10526;50.850;12.928;2023-06-22T16:13:39;13.57;;;6.97;;
20729;SDS011;10526;50.850;12.928;2023-06-22T16:18:01;17.27;;;6.68;;
20729;SDS011;10526;50.850;12.928;2023-06-22T16:22:24;15.02;;;7.13;;
20729;SDS011;10526;50.850;12.928;2023-06-22T16:26:46;14.32;;;6.35;;
20729;SDS011;10526;50.850;12.928;2023-06-22T16:31:09;16.45;;;6.88;;
20729;SDS011;10526;50.850;12.928;2023-06-22T16:35:31;15.65;;;6.90;;
20729;SDS011;10526;50.850;12.928;2023-06-22T16:39:54;15.93;;;7.03;;
20729;SDS011;10526;50.850;12.928;2023-06-22T16:44:16;14.35;;;7.38;;
20729;SDS011;10526;50.850;12.928;2023-06-22T16:48:38;12.55;;;6.65;;
20729;SDS011;10526;50.850;12.928;2023-06-22T16:53:00;13.73;;;6.97;;
20729;SDS011;10526;50.850;12.928;2023-06-22T16:57:22;13.48;;;6.57;;
20729;SDS011;10526;50.850;12.928;2023-06-22T17:01:53;14.57;;;7.13;;
20729;SDS011;10526;50.850;12.928;2023-06-22T17:06:17;13.55;;;6.63;;
20729;SDS011;10526;50.850;12.928;2023-06-22T17:10:40;13.80;;;6.72;;
20729;SDS011;10526;50.850;12.928;2023-06-22T17:15:03;18.42;;;6.57;;
20729;SDS011;10526;50.850;12.928;2023-06-22T17:19:26;13.27;;;7.05;;
20729;SDS011;10526;50.850;12.928;2023-06-22T17:23:49;16.30;;;7.60;;
20729;SDS011;10526;50.850;12.928;2023-06-22T17:28:12;14.00;;;7.43;;
20729;SDS011;10526;50.850;12.928;2023-06-22T17:32:34;15.27;;;7.18;;
20729;SDS011;10526;50.850;12.928;2023-06-22T17:36:57;18.13;;;7.15;;
20729;SDS011;10526;50.850;12.928;2023-06-22T17:41:20;12.32;;;7.00;;
20729;SDS011;10526;50.850;12.928;2023-06-22T17:45:42;15.50;;;7.53;;
20729;SDS011;10526;50.850;12.928;2023-06-22T17:50:08;17.88;;;6.90;;
20729;SDS011;10526;50.850;12.928;2023-06-22T17:54:31;16.42;;;7.90;;
20729;SDS011;10526;50.850;12.928;2023-06-22T17:59:01;17.45;;;8.10;;
20729;SDS011;10526;50.850;12.928;2023-06-22T18:03:24;17.98;;;7.03;;
20729;SDS011;10526;50.850;12.928;2023-06-22T18:07:46;17.88;;;7.90;;
20729;SDS011;10526;50.850;12.928;2023-06-22T18:12:12;16.02;;;7.60;;
20729;SDS011;10526;50.850;12.928;2023-06-22T18:16:34;18.75;;;8.18;;
20729;SDS011;10526;50.850;12.928;2023-06-22T18:20:56;13.45;;;7.25;;
20729;SDS011;10526;50.850;12.928;2023-06-22T18:25:21;16.58;;;7.75;;
20729;SDS011;10526;50.850;12.928;2023-06-22T18:29:44;15.75;;;7.82;;
20729;SDS011;10526;50.850;12.928;2023-06-22T18:34:09;16.50;;;7.03;;
20729;SDS011;10526;50.850;12.928;2023-06-22T18:38:34;14.30;;;7.80;;
20729;SDS011;10526;50.850;12.928;2023-06-22T18:43:01;16.20;;;8.15;;
20729;SDS011;10526;50.850;12.928;2023-06-22T18:47:27;17.65;;;8.40;;
20729;SDS011;10526;50.850;12.928;2023-06-22T18:56:24;17.27;;;8.40;;
20729;SDS011;10526;50.850;12.928;2023-06-22T19:00:46;15.32;;;8.80;;
20729;SDS011;10526;50.850;12.928;2023-06-22T19:09:36;18.35;;;9.48;;
20729;SDS011;10526;50.850;12.928;2023-06-22T19:13:59;15.00;;;8.30;;
20729;SDS011;10526;50.850;12.928;2023-06-22T19:18:22;17.20;;;8.40;;
20729;SDS011;10526;50.850;12.928;2023-06-22T19:22:54;16.27;;;8.38;;
20729;SDS011;10526;50.850;12.928;2023-06-22T19:27:18;15.73;;;7.72;;
20729;SDS011;10526;50.850;12.928;2023-06-22T19:31:42;17.92;;;9.05;;
20729;SDS011;10526;50.850;12.928;2023-06-22T19:36:05;14.82;;;8.50;;
20729;SDS011;10526;50.850;12.928;2023-06-22T19:40:28;15.30;;;8.65;;
20729;SDS011;10526;50.850;12.928;2023-06-22T19:44:50;17.20;;;9.18;;
20729;SDS011;10526;50.850;12.928;2023-06-22T19:49:15;16.77;;;9.43;;
20729;SDS011;10526;50.850;12.928;2023-06-22T19:53:41;18.75;;;9.20;;
20729;SDS011;10526;50.850;12.928;2023-06-22T19:58:05;15.88;;;8.45;;
20729;SDS011;10526;50.850;12.928;2023-06-22T20:02:28;17.95;;;8.80;;
20729;SDS011;10526;50.850;12.928;2023-06-22T20:06:59;16.58;;;9.20;;
20729;SDS011;10526;50.850;12.928;2023-06-22T20:11:27;17.75;;;8.45;;
20729;SDS011;10526;50.850;12.928;2023-06-22T20:15:51;15.43;;;7.97;;
20729;SDS011;10526;50.850;12.928;2023-06-22T20:20:47;18.42;;;8.68;;
20729;SDS011;10526;50.850;12.928;2023-06-22T20:25:07;18.40;;;7.85;;
20729;SDS011;10526;50.850;12.928;2023-06-22T20:29:31;18.02;;;8.23;;
20729;SDS011;10526;50.850;12.928;2023-06-22T20:34:03;14.55;;;7.85;;
20729;SDS011;10526;50.850;12.928;2023-06-22T20:38:25;19.17;;;8.50;;
20729;SDS011;10526;50.850;12.928;2023-06-22T20:42:49;14.35;;;7.97;;
20729;SDS011;10526;50.850;12.928;2023-06-22T20:47:11;14.13;;;8.07;;
20729;SDS011;10526;50.850;12.928;2023-06-22T20:51:33;19.30;;;8.30;;
20729;SDS011;10526;50.850;12.928;2023-06-22T20:55:55;20.40;;;8.82;;
20729;SDS011;10526;50.850;12.928;2023-06-22T21:00:18;16.52;;;8.50;;
20729;SDS011;10526;50.850;12.928;2023-06-22T21:04:40;19.27;;;9.50;;
20729;SDS011;10526;50.850;12.928;2023-06-22T21:09:03;17.63;;;8.77;;
20729;SDS011;10526;50.850;12.928;2023-06-22T21:13:24;18.33;;;9.15;;
20729;SDS011;10526;50.850;12.928;2023-06-22T21:17:47;17.50;;;9.73;;
20729;SDS011;10526;50.850;12.928;2023-06-22T21:22:12;21.75;;;9.60;;
20729;SDS011;10526;50.850;12.928;2023-06-22T21:26:34;16.13;;;9.60;;
20729;SDS011;10526;50.850;12.928;2023-06-22T21:30:57;18.00;;;9.52;;
20729;SDS011;10526;50.850;12.928;2023-06-22T21:35:19;16.70;;;7.72;;
20729;SDS011;10526;50.850;12.928;2023-06-22T21:39:43;18.08;;;7.13;;
20729;SDS011;10526;50.850;12.928;2023-06-22T21:44:05;14.90;;;6.90;;
20729;SDS011;10526;50.850;12.928;2023-06-22T21:48:28;16.60;;;5.65;;
20729;SDS011;10526;50.850;12.928;2023-06-22T21:52:50;14.07;;;5.60;;
20729;SDS011;10526;50.850;12.928;2023-06-22T21:57:12;10.40;;;3.90;;
20729;SDS011;10526;50.850;12.928;2023-06-22T22:01:34;15.05;;;4.03;;
20729;SDS011;10526;50.850;12.928;2023-06-22T22:05:57;17.80;;;5.25;;
20729;SDS011;10526;50.850;12.928;2023-06-22T22:10:19;12.82;;;4.22;;
20729;SDS011;10526;50.850;12.928;2023-06-22T22:14:41;17.30;;;4.88;;
20729;SDS011;10526;50.850;12.928;2023-06-22T22:19:04;11.82;;;4.53;;
20729;SDS011;10526;50.850;12.928;2023-06-22T22:23:27;12.32;;;4.20;;
20729;SDS011;10526;50.850;12.928;2023-06-22T22:27:55;17.55;;;4.22;;
20729;SDS011;10526;50.850;12.928;2023-06-22T22:32:54;13.40;;;4.50;;
20729;SDS011;10526;50.850;12.928;2023-06-22T22:37:50;15.13;;;4.28;;
20729;SDS011;10526;50.850;12.928;2023-06-22T22:42:40;20.00;;;5.10;;
20729;SDS011;10526;50.850;12.928;2023-06-22T22:47:03;15.10;;;6.97;;
20729;SDS011;10526;50.850;12.928;2023-06-22T22:51:25;16.67;;;6.97;;
20729;SDS011;10526;50.850;12.928;2023-06-22T22:55:48;16.42;;;7.60;;
20729;SDS011;10526;50.850;12.928;2023-06-22T23:00:11;16.63;;;7.93;;
20729;SDS011;10526;50.850;12.928;2023-06-22T23:04:34;21.23;;;9.00;;
20729;SDS011;10526;50.850;12.928;2023-06-22T23:08:56;16.23;;;5.90;;
20729;SDS011;10526;50.850;12.928;2023-06-22T23:13:19;13.00;;;4.88;;
20729;SDS011;10526;50.850;12.928;2023-06-22T23:17:41;14.55;;;4.35;;
20729;SDS011;10526;50.850;12.928;2023-06-22T23:22:04;13.63;;;4.88;;
20729;SDS011;10526;50.850;12.928;2023-06-22T23:26:27;11.48;;;4.47;;
20729;SDS011;10526;50.850;12.928;2023-06-22T23:30:49;9.27;;;3.47;;
20729;SDS011;10526;50.850;12.928;2023-06-22T23:35:11;10.90;;;3.70;;
20729;SDS011;10526;50.850;12.928;2023-06-22T23:39:34;14.32;;;4.10;;
20729;SDS011;10526;50.850;12.928;2023-06-22T23:43:56;14.13;;;4.85;;
20729;SDS011;10526;50.850;12.928;2023-06-22T23:48:18;13.80;;;4.65;;
20729;SDS011;10526;50.850;12.928;2023-06-22T23:52:41;17.95;;;6.18;;
20729;SDS011;10526;50.850;12.928;2023-06-22T23:57:04;14.90;;;4.95;;
